sensor_id;sensor_type;location;lat;lon;timestamp;P1;durP1;ratioP1;P2;durP2;ratioP2
20185;SDS011;10252;48.792;8.582;2023-06-04T00:01:09;13.90;;;7.25;;
20185;SDS011;10252;48.792;8.582;2023-06-04T00:06:10;9.07;;;7.25;;
20185;SDS011;10252;48.792;8.582;2023-06-04T00:11:11;11.25;;;7.25;;
20185;SDS011;10252;48.792;8.582;2023-06-04T00:16:12;10.80;;;7.57;;
20185;SDS011;10252;48.792;8.582;2023-06-04T00:21:13;11.68;;;7.95;;
20185;SDS011;10252;48.792;8.582;2023-06-04T00:26:14;11.63;;;7.95;;
20185;SDS011;10252;48.792;8.582;2023-06-04T00:31:20;13.35;;;7.38;;
20185;SDS011;10252;48.792;8.582;2023-06-04T00:36:21;10.23;;;7.05;;
20185;SDS011;10252;48.792;8.582;2023-06-04T00:41:22;10.82;;;7.82;;
20185;SDS011;10252;48.792;8.582;2023-06-04T00:46:24;9.10;;;6.85;;
20185;SDS011;10252;48.792;8.582;2023-06-04T00:51:25;10.90;;;7.00;;
20185;SDS011;10252;48.792;8.582;2023-06-04T00:56:27;8.32;;;6.70;;
20185;SDS011;10252;48.792;8.582;2023-06-04T01:06:50;9.40;;;7.28;;
20185;SDS011;10252;48.792;8.582;2023-06-04T01:11:54;10.15;;;7.70;;
20185;SDS011;10252;48.792;8.582;2023-06-04T01:16:59;12.20;;;7.63;;
20185;SDS011;10252;48.792;8.582;2023-06-04T01:22:04;15.00;;;7.07;;
20185;SDS011;10252;48.792;8.582;2023-06-04T01:27:11;7.72;;;6.80;;
20185;SDS011;10252;48.792;8.582;2023-06-04T01:32:16;12.07;;;7.60;;
20185;SDS011;10252;48.792;8.582;2023-06-04T01:37:17;10.32;;;7.00;;
20185;SDS011;10252;48.792;8.582;2023-06-04T01:42:25;8.57;;;6.80;;
20185;SDS011;10252;48.792;8.582;2023-06-04T01:47:26;11.48;;;7.25;;
20185;SDS011;10252;48.792;8.582;2023-06-04T01:52:27;11.75;;;7.68;;
20185;SDS011;10252;48.792;8.582;2023-06-04T01:57:28;10.15;;;7.57;;
20185;SDS011;10252;48.792;8.582;2023-06-04T02:02:29;8.82;;;7.18;;
20185;SDS011;10252;48.792;8.582;2023-06-04T02:07:30;10.65;;;7.53;;
20185;SDS011;10252;48.792;8.582;2023-06-04T02:12:32;12.45;;;7.75;;
20185;SDS011;10252;48.792;8.582;2023-06-04T02:17:33;9.02;;;6.88;;
20185;SDS011;10252;48.792;8.582;2023-06-04T02:22:37;8.15;;;6.70;;
20185;SDS011;10252;48.792;8.582;2023-06-04T02:27:38;10.60;;;7.28;;
20185;SDS011;10252;48.792;8.582;2023-06-04T02:32:40;9.63;;;7.28;;
20185;SDS011;10252;48.792;8.582;2023-06-04T02:37:41;10.05;;;6.90;;
20185;SDS011;10252;48.792;8.582;2023-06-04T02:42:42;11.30;;;7.40;;
20185;SDS011;10252;48.792;8.582;2023-06-04T02:47:43;13.50;;;8.02;;
20185;SDS011;10252;48.792;8.582;2023-06-04T02:52:44;12.77;;;8.20;;
20185;SDS011;10252;48.792;8.582;2023-06-04T02:57:45;10.50;;;7.30;;
20185;SDS011;10252;48.792;8.582;2023-06-04T03:02:47;11.18;;;7.78;;
20185;SDS011;10252;48.792;8.582;2023-06-04T03:07:49;10.15;;;7.35;;
20185;SDS011;10252;48.792;8.582;2023-06-04T03:12:50;10.43;;;7.28;;
20185;SDS011;10252;48.792;8.582;2023-06-04T03:17:51;9.70;;;7.63;;
20185;SDS011;10252;48.792;8.582;2023-06-04T03:22:52;10.82;;;7.20;;
20185;SDS011;10252;48.792;8.582;2023-06-04T03:27:53;9.60;;;7.25;;
20185;SDS011;10252;48.792;8.582;2023-06-04T03:32:55;11.80;;;7.70;;
20185;SDS011;10252;48.792;8.582;2023-06-04T03:37:56;9.32;;;7.43;;
20185;SDS011;10252;48.792;8.582;2023-06-04T03:49:02;9.30;;;7.20;;
20185;SDS011;10252;48.792;8.582;2023-06-04T03:54:04;13.75;;;7.70;;
20185;SDS011;10252;48.792;8.582;2023-06-04T03:59:06;10.10;;;7.63;;
20185;SDS011;10252;48.792;8.582;2023-06-04T04:04:07;8.52;;;7.13;;
20185;SDS011;10252;48.792;8.582;2023-06-04T04:09:08;9.73;;;7.20;;
20185;SDS011;10252;48.792;8.582;2023-06-04T04:14:10;11.15;;;7.45;;
20185;SDS011;10252;48.792;8.582;2023-06-04T04:19:11;12.10;;;7.43;;
20185;SDS011;10252;48.792;8.582;2023-06-04T04:24:23;11.88;;;6.82;;
20185;SDS011;10252;48.792;8.582;2023-06-04T04:29:25;10.30;;;7.65;;
20185;SDS011;10252;48.792;8.582;2023-06-04T04:34:29;10.25;;;7.07;;
20185;SDS011;10252;48.792;8.582;2023-06-04T04:39:34;12.25;;;7.35;;
20185;SDS011;10252;48.792;8.582;2023-06-04T04:44:39;11.57;;;7.10;;
20185;SDS011;10252;48.792;8.582;2023-06-04T04:49:40;10.43;;;7.18;;
20185;SDS011;10252;48.792;8.582;2023-06-04T04:54:41;8.07;;;6.45;;
20185;SDS011;10252;48.792;8.582;2023-06-04T04:59:43;9.38;;;6.55;;
20185;SDS011;10252;48.792;8.582;2023-06-04T05:04:44;7.68;;;6.28;;
20185;SDS011;10252;48.792;8.582;2023-06-04T05:09:47;9.63;;;6.40;;
20185;SDS011;10252;48.792;8.582;2023-06-04T05:14:48;10.07;;;7.30;;
20185;SDS011;10252;48.792;8.582;2023-06-04T05:19:50;8.10;;;6.20;;
20185;SDS011;10252;48.792;8.582;2023-06-04T05:24:53;8.70;;;6.43;;
20185;SDS011;10252;48.792;8.582;2023-06-04T05:29:54;9.23;;;6.20;;
20185;SDS011;10252;48.792;8.582;2023-06-04T05:34:56;12.23;;;6.30;;
20185;SDS011;10252;48.792;8.582;2023-06-04T05:39:57;8.10;;;5.70;;
20185;SDS011;10252;48.792;8.582;2023-06-04T05:44:59;7.60;;;5.82;;
20185;SDS011;10252;48.792;8.582;2023-06-04T05:50:00;10.35;;;5.80;;
20185;SDS011;10252;48.792;8.582;2023-06-04T05:55:02;7.97;;;5.10;;
20185;SDS011;10252;48.792;8.582;2023-06-04T06:00:03;5.97;;;5.00;;
20185;SDS011;10252;48.792;8.582;2023-06-04T06:05:14;6.25;;;4.07;;
20185;SDS011;10252;48.792;8.582;2023-06-04T06:10:15;5.82;;;5.00;;
20185;SDS011;10252;48.792;8.582;2023-06-04T06:15:17;6.25;;;4.55;;
20185;SDS011;10252;48.792;8.582;2023-06-04T06:20:21;7.20;;;3.80;;
20185;SDS011;10252;48.792;8.582;2023-06-04T06:25:23;4.78;;;4.22;;
20185;SDS011;10252;48.792;8.582;2023-06-04T06:30:36;5.93;;;3.67;;
20185;SDS011;10252;48.792;8.582;2023-06-04T06:35:37;6.07;;;3.80;;
20185;SDS011;10252;48.792;8.582;2023-06-04T06:40:38;4.93;;;3.90;;
20185;SDS011;10252;48.792;8.582;2023-06-04T06:45:39;4.55;;;4.05;;
20185;SDS011;10252;48.792;8.582;2023-06-04T06:50:40;5.80;;;4.03;;
20185;SDS011;10252;48.792;8.582;2023-06-04T06:55:41;8.40;;;3.80;;
20185;SDS011;10252;48.792;8.582;2023-06-04T07:00:42;7.45;;;4.22;;
20185;SDS011;10252;48.792;8.582;2023-06-04T07:05:43;4.95;;;4.15;;
20185;SDS011;10252;48.792;8.582;2023-06-04T07:10:45;7.47;;;4.35;;
20185;SDS011;10252;48.792;8.582;2023-06-04T07:15:46;4.78;;;3.95;;
20185;SDS011;10252;48.792;8.582;2023-06-04T07:20:47;4.40;;;3.88;;
20185;SDS011;10252;48.792;8.582;2023-06-04T07:25:49;4.03;;;3.33;;
20185;SDS011;10252;48.792;8.582;2023-06-04T07:30:50;4.22;;;2.88;;
20185;SDS011;10252;48.792;8.582;2023-06-04T07:35:52;3.75;;;2.95;;
20185;SDS011;10252;48.792;8.582;2023-06-04T07:40:53;3.25;;;2.70;;
20185;SDS011;10252;48.792;8.582;2023-06-04T07:45:54;3.03;;;2.72;;
20185;SDS011;10252;48.792;8.582;2023-06-04T07:50:55;4.22;;;2.47;;
20185;SDS011;10252;48.792;8.582;2023-06-04T07:55:56;3.97;;;3.35;;
20185;SDS011;10252;48.792;8.582;2023-06-04T08:00:57;3.58;;;3.17;;
20185;SDS011;10252;48.792;8.582;2023-06-04T08:05:58;4.38;;;3.47;;
20185;SDS011;10252;48.792;8.582;2023-06-04T08:11:00;5.07;;;3.50;;
20185;SDS011;10252;48.792;8.582;2023-06-04T08:16:01;5.07;;;3.15;;
20185;SDS011;10252;48.792;8.582;2023-06-04T08:21:02;4.22;;;3.45;;
20185;SDS011;10252;48.792;8.582;2023-06-04T08:26:03;3.72;;;3.20;;
20185;SDS011;10252;48.792;8.582;2023-06-04T08:31:04;3.67;;;2.88;;
20185;SDS011;10252;48.792;8.582;2023-06-04T08:36:05;4.95;;;2.78;;
20185;SDS011;10252;48.792;8.582;2023-06-04T08:41:15;7.65;;;3.53;;
20185;SDS011;10252;48.792;8.582;2023-06-04T08:46:16;3.25;;;2.90;;
20185;SDS011;10252;48.792;8.582;2023-06-04T08:51:18;4.25;;;3.25;;
20185;SDS011;10252;48.792;8.582;2023-06-04T08:56:20;3.20;;;2.72;;
20185;SDS011;10252;48.792;8.582;2023-06-04T09:01:22;6.07;;;2.85;;
20185;SDS011;10252;48.792;8.582;2023-06-04T09:06:24;5.85;;;2.65;;
20185;SDS011;10252;48.792;8.582;2023-06-04T09:11:26;7.18;;;3.08;;
20185;SDS011;10252;48.792;8.582;2023-06-04T09:16:28;4.68;;;3.35;;
20185;SDS011;10252;48.792;8.582;2023-06-04T09:21:47;6.55;;;2.72;;
20185;SDS011;10252;48.792;8.582;2023-06-04T09:26:48;5.25;;;2.65;;
20185;SDS011;10252;48.792;8.582;2023-06-04T09:31:58;5.97;;;3.70;;
20185;SDS011;10252;48.792;8.582;2023-06-04T09:37:00;5.88;;;3.15;;
20185;SDS011;10252;48.792;8.582;2023-06-04T09:42:01;4.18;;;3.13;;
20185;SDS011;10252;48.792;8.582;2023-06-04T09:47:03;6.13;;;3.28;;
20185;SDS011;10252;48.792;8.582;2023-06-04T09:52:04;3.53;;;3.10;;
20185;SDS011;10252;48.792;8.582;2023-06-04T09:57:13;5.47;;;3.42;;
20185;SDS011;10252;48.792;8.582;2023-06-04T10:02:18;4.53;;;3.47;;
20185;SDS011;10252;48.792;8.582;2023-06-04T10:07:20;4.38;;;3.22;;
20185;SDS011;10252;48.792;8.582;2023-06-04T10:12:23;5.18;;;3.38;;
20185;SDS011;10252;48.792;8.582;2023-06-04T10:17:27;4.63;;;3.45;;
20185;SDS011;10252;48.792;8.582;2023-06-04T10:22:28;5.22;;;3.58;;
20185;SDS011;10252;48.792;8.582;2023-06-04T10:27:30;7.60;;;3.67;;
20185;SDS011;10252;48.792;8.582;2023-06-04T10:32:31;4.07;;;3.25;;
20185;SDS011;10252;48.792;8.582;2023-06-04T10:37:32;4.18;;;3.13;;
20185;SDS011;10252;48.792;8.582;2023-06-04T10:42:37;5.68;;;3.83;;
20185;SDS011;10252;48.792;8.582;2023-06-04T10:47:39;4.30;;;3.25;;
20185;SDS011;10252;48.792;8.582;2023-06-04T10:52:51;4.00;;;3.60;;
20185;SDS011;10252;48.792;8.582;2023-06-04T10:57:53;4.72;;;4.30;;
20185;SDS011;10252;48.792;8.582;2023-06-04T11:02:54;4.45;;;3.17;;
20185;SDS011;10252;48.792;8.582;2023-06-04T11:07:55;7.10;;;3.95;;
20185;SDS011;10252;48.792;8.582;2023-06-04T11:12:56;6.28;;;3.47;;
20185;SDS011;10252;48.792;8.582;2023-06-04T11:17:57;4.93;;;4.07;;
20185;SDS011;10252;48.792;8.582;2023-06-04T11:22:59;5.93;;;4.05;;
20185;SDS011;10252;48.792;8.582;2023-06-04T11:28:03;4.90;;;3.63;;
20185;SDS011;10252;48.792;8.582;2023-06-04T11:33:04;4.50;;;3.50;;
20185;SDS011;10252;48.792;8.582;2023-06-04T11:38:05;9.43;;;3.90;;
20185;SDS011;10252;48.792;8.582;2023-06-04T11:43:08;5.25;;;3.75;;
20185;SDS011;10252;48.792;8.582;2023-06-04T11:48:10;4.30;;;3.08;;
20185;SDS011;10252;48.792;8.582;2023-06-04T11:53:12;3.72;;;3.03;;
20185;SDS011;10252;48.792;8.582;2023-06-04T11:58:13;3.85;;;2.83;;
20185;SDS011;10252;48.792;8.582;2023-06-04T12:03:14;4.22;;;2.97;;
20185;SDS011;10252;48.792;8.582;2023-06-04T12:08:15;3.70;;;3.05;;
20185;SDS011;10252;48.792;8.582;2023-06-04T12:13:16;5.63;;;3.83;;
20185;SDS011;10252;48.792;8.582;2023-06-04T12:18:23;5.22;;;3.22;;
20185;SDS011;10252;48.792;8.582;2023-06-04T12:23:24;3.83;;;3.35;;
20185;SDS011;10252;48.792;8.582;2023-06-04T12:28:27;4.15;;;3.22;;
20185;SDS011;10252;48.792;8.582;2023-06-04T12:33:28;5.25;;;3.47;;
20185;SDS011;10252;48.792;8.582;2023-06-04T12:38:29;4.53;;;3.60;;
20185;SDS011;10252;48.792;8.582;2023-06-04T12:43:30;5.90;;;3.70;;
20185;SDS011;10252;48.792;8.582;2023-06-04T12:48:37;6.47;;;3.88;;
20185;SDS011;10252;48.792;8.582;2023-06-04T12:53:38;4.50;;;3.60;;
20185;SDS011;10252;48.792;8.582;2023-06-04T12:58:40;3.60;;;3.22;;
20185;SDS011;10252;48.792;8.582;2023-06-04T13:03:41;5.63;;;3.17;;
20185;SDS011;10252;48.792;8.582;2023-06-04T13:08:42;3.60;;;3.30;;
20185;SDS011;10252;48.792;8.582;2023-06-04T13:13:43;3.92;;;3.35;;
20185;SDS011;10252;48.792;8.582;2023-06-04T13:18:44;3.50;;;3.20;;
20185;SDS011;10252;48.792;8.582;2023-06-04T13:23:45;3.78;;;3.05;;
20185;SDS011;10252;48.792;8.582;2023-06-04T13:28:46;4.20;;;3.47;;
20185;SDS011;10252;48.792;8.582;2023-06-04T13:33:48;6.05;;;3.40;;
20185;SDS011;10252;48.792;8.582;2023-06-04T13:38:49;4.65;;;3.42;;
20185;SDS011;10252;48.792;8.582;2023-06-04T13:43:52;10.07;;;3.88;;
20185;SDS011;10252;48.792;8.582;2023-06-04T13:48:53;3.95;;;3.55;;
20185;SDS011;10252;48.792;8.582;2023-06-04T13:53:54;4.80;;;3.50;;
20185;SDS011;10252;48.792;8.582;2023-06-04T13:58:55;3.22;;;2.75;;
20185;SDS011;10252;48.792;8.582;2023-06-04T14:03:56;4.78;;;3.13;;
20185;SDS011;10252;48.792;8.582;2023-06-04T14:08:58;3.90;;;3.20;;
20185;SDS011;10252;48.792;8.582;2023-06-04T14:14:00;3.70;;;3.20;;
20185;SDS011;10252;48.792;8.582;2023-06-04T14:19:01;4.80;;;2.75;;
20185;SDS011;10252;48.792;8.582;2023-06-04T14:24:02;5.53;;;3.05;;
20185;SDS011;10252;48.792;8.582;2023-06-04T14:29:03;5.82;;;2.70;;
20185;SDS011;10252;48.792;8.582;2023-06-04T14:34:04;5.18;;;3.80;;
20185;SDS011;10252;48.792;8.582;2023-06-04T14:39:07;4.00;;;3.05;;
20185;SDS011;10252;48.792;8.582;2023-06-04T14:44:08;4.07;;;2.78;;
20185;SDS011;10252;48.792;8.582;2023-06-04T14:49:09;4.15;;;2.97;;
20185;SDS011;10252;48.792;8.582;2023-06-04T14:54:10;3.33;;;3.03;;
20185;SDS011;10252;48.792;8.582;2023-06-04T14:59:11;3.35;;;2.70;;
20185;SDS011;10252;48.792;8.582;2023-06-04T15:04:12;4.03;;;3.28;;
20185;SDS011;10252;48.792;8.582;2023-06-04T15:09:13;4.88;;;3.30;;
20185;SDS011;10252;48.792;8.582;2023-06-04T15:14:14;3.75;;;3.22;;
20185;SDS011;10252;48.792;8.582;2023-06-04T15:19:15;6.68;;;3.80;;
20185;SDS011;10252;48.792;8.582;2023-06-04T15:24:17;6.55;;;3.67;;
20185;SDS011;10252;48.792;8.582;2023-06-04T15:29:18;5.72;;;3.58;;
20185;SDS011;10252;48.792;8.582;2023-06-04T15:34:19;5.10;;;3.38;;
20185;SDS011;10252;48.792;8.582;2023-06-04T15:39:21;6.40;;;3.58;;
20185;SDS011;10252;48.792;8.582;2023-06-04T15:44:22;4.25;;;3.50;;
20185;SDS011;10252;48.792;8.582;2023-06-04T15:49:23;4.63;;;3.58;;
20185;SDS011;10252;48.792;8.582;2023-06-04T15:54:24;6.00;;;4.13;;
20185;SDS011;10252;48.792;8.582;2023-06-04T15:59:25;4.70;;;3.42;;
20185;SDS011;10252;48.792;8.582;2023-06-04T16:04:27;6.28;;;3.65;;
20185;SDS011;10252;48.792;8.582;2023-06-04T16:09:28;4.43;;;3.30;;
20185;SDS011;10252;48.792;8.582;2023-06-04T16:14:29;5.97;;;3.95;;
20185;SDS011;10252;48.792;8.582;2023-06-04T16:19:30;5.07;;;4.05;;
20185;SDS011;10252;48.792;8.582;2023-06-04T16:24:31;4.60;;;4.10;;
20185;SDS011;10252;48.792;8.582;2023-06-04T16:29:32;3.33;;;3.03;;
20185;SDS011;10252;48.792;8.582;2023-06-04T16:34:33;3.78;;;2.95;;
20185;SDS011;10252;48.792;8.582;2023-06-04T16:39:34;5.40;;;3.75;;
20185;SDS011;10252;48.792;8.582;2023-06-04T16:44:35;3.47;;;2.78;;
20185;SDS011;10252;48.792;8.582;2023-06-04T16:49:37;4.32;;;3.58;;
20185;SDS011;10252;48.792;8.582;2023-06-04T16:54:38;3.55;;;2.83;;
20185;SDS011;10252;48.792;8.582;2023-06-04T16:59:44;3.83;;;3.53;;
20185;SDS011;10252;48.792;8.582;2023-06-04T17:04:45;4.20;;;3.28;;
20185;SDS011;10252;48.792;8.582;2023-06-04T17:09:46;3.78;;;3.38;;
20185;SDS011;10252;48.792;8.582;2023-06-04T17:14:47;3.88;;;3.33;;
20185;SDS011;10252;48.792;8.582;2023-06-04T17:19:48;4.40;;;3.00;;
20185;SDS011;10252;48.792;8.582;2023-06-04T17:24:50;4.32;;;3.22;;
20185;SDS011;10252;48.792;8.582;2023-06-04T17:29:51;3.53;;;2.58;;
20185;SDS011;10252;48.792;8.582;2023-06-04T17:34:53;4.18;;;2.92;;
20185;SDS011;10252;48.792;8.582;2023-06-04T17:39:54;3.60;;;2.83;;
20185;SDS011;10252;48.792;8.582;2023-06-04T17:44:55;3.28;;;2.70;;
20185;SDS011;10252;48.792;8.582;2023-06-04T17:49:56;5.63;;;2.92;;
20185;SDS011;10252;48.792;8.582;2023-06-04T17:55:00;3.97;;;2.42;;
20185;SDS011;10252;48.792;8.582;2023-06-04T18:00:02;2.65;;;2.33;;
20185;SDS011;10252;48.792;8.582;2023-06-04T18:05:12;4.30;;;2.58;;
20185;SDS011;10252;48.792;8.582;2023-06-04T18:10:13;3.22;;;2.33;;
20185;SDS011;10252;48.792;8.582;2023-06-04T18:15:14;5.00;;;2.45;;
20185;SDS011;10252;48.792;8.582;2023-06-04T18:20:15;3.53;;;2.35;;
20185;SDS011;10252;48.792;8.582;2023-06-04T18:25:16;3.38;;;2.20;;
20185;SDS011;10252;48.792;8.582;2023-06-04T18:30:18;3.13;;;1.83;;
20185;SDS011;10252;48.792;8.582;2023-06-04T18:35:19;3.72;;;2.13;;
20185;SDS011;10252;48.792;8.582;2023-06-04T18:40:20;2.75;;;2.15;;
20185;SDS011;10252;48.792;8.582;2023-06-04T18:45:21;2.38;;;2.00;;
20185;SDS011;10252;48.792;8.582;2023-06-04T18:50:22;2.83;;;1.83;;
20185;SDS011;10252;48.792;8.582;2023-06-04T18:55:23;4.57;;;2.00;;
20185;SDS011;10252;48.792;8.582;2023-06-04T19:00:24;3.50;;;1.80;;
20185;SDS011;10252;48.792;8.582;2023-06-04T19:05:26;2.63;;;1.95;;
20185;SDS011;10252;48.792;8.582;2023-06-04T19:10:27;2.90;;;2.20;;
20185;SDS011;10252;48.792;8.582;2023-06-04T19:15:28;2.80;;;2.25;;
20185;SDS011;10252;48.792;8.582;2023-06-04T19:20:29;5.10;;;2.22;;
20185;SDS011;10252;48.792;8.582;2023-06-04T19:25:30;2.35;;;1.90;;
20185;SDS011;10252;48.792;8.582;2023-06-04T19:30:31;2.35;;;1.60;;
20185;SDS011;10252;48.792;8.582;2023-06-04T19:35:32;3.10;;;1.95;;
20185;SDS011;10252;48.792;8.582;2023-06-04T19:40:33;4.72;;;2.00;;
20185;SDS011;10252;48.792;8.582;2023-06-04T19:45:34;2.80;;;1.98;;
20185;SDS011;10252;48.792;8.582;2023-06-04T19:50:35;4.43;;;2.10;;
20185;SDS011;10252;48.792;8.582;2023-06-04T19:55:36;3.33;;;2.25;;
20185;SDS011;10252;48.792;8.582;2023-06-04T20:00:37;4.55;;;2.20;;
20185;SDS011;10252;48.792;8.582;2023-06-04T20:05:38;3.28;;;2.00;;
20185;SDS011;10252;48.792;8.582;2023-06-04T20:10:40;4.25;;;1.98;;
20185;SDS011;10252;48.792;8.582;2023-06-04T20:15:41;4.30;;;2.08;;
20185;SDS011;10252;48.792;8.582;2023-06-04T20:20:42;4.53;;;2.30;;
20185;SDS011;10252;48.792;8.582;2023-06-04T20:25:43;4.20;;;2.50;;
20185;SDS011;10252;48.792;8.582;2023-06-04T20:30:44;6.40;;;2.40;;
20185;SDS011;10252;48.792;8.582;2023-06-04T20:35:45;3.13;;;2.13;;
20185;SDS011;10252;48.792;8.582;2023-06-04T20:40:46;3.83;;;2.30;;
20185;SDS011;10252;48.792;8.582;2023-06-04T20:45:47;4.50;;;2.40;;
20185;SDS011;10252;48.792;8.582;2023-06-04T20:50:48;4.88;;;2.50;;
20185;SDS011;10252;48.792;8.582;2023-06-04T20:55:49;4.22;;;2.38;;
20185;SDS011;10252;48.792;8.582;2023-06-04T21:00:51;5.20;;;2.55;;
20185;SDS011;10252;48.792;8.582;2023-06-04T21:05:52;4.40;;;2.63;;
20185;SDS011;10252;48.792;8.582;2023-06-04T21:10:53;3.95;;;2.50;;
20185;SDS011;10252;48.792;8.582;2023-06-04T21:15:54;3.38;;;2.58;;
20185;SDS011;10252;48.792;8.582;2023-06-04T21:20:55;3.55;;;2.25;;
20185;SDS011;10252;48.792;8.582;2023-06-04T21:25:56;5.30;;;2.20;;
20185;SDS011;10252;48.792;8.582;2023-06-04T21:30:57;4.50;;;2.60;;
20185;SDS011;10252;48.792;8.582;2023-06-04T21:35:58;4.10;;;2.63;;
20185;SDS011;10252;48.792;8.582;2023-06-04T21:40:59;3.75;;;2.70;;
20185;SDS011;10252;48.792;8.582;2023-06-04T21:46:00;2.20;;;2.00;;
20185;SDS011;10252;48.792;8.582;2023-06-04T21:51:02;7.55;;;3.03;;
20185;SDS011;10252;48.792;8.582;2023-06-04T21:56:03;3.90;;;2.15;;
20185;SDS011;10252;48.792;8.582;2023-06-04T22:01:04;2.58;;;2.13;;
20185;SDS011;10252;48.792;8.582;2023-06-04T22:06:05;3.00;;;2.20;;
20185;SDS011;10252;48.792;8.582;2023-06-04T22:11:06;3.75;;;2.38;;
20185;SDS011;10252;48.792;8.582;2023-06-04T22:16:07;4.55;;;2.60;;
20185;SDS011;10252;48.792;8.582;2023-06-04T22:21:08;5.20;;;2.50;;
20185;SDS011;10252;48.792;8.582;2023-06-04T22:26:09;3.58;;;2.65;;
20185;SDS011;10252;48.792;8.582;2023-06-04T22:31:10;3.47;;;2.20;;
20185;SDS011;10252;48.792;8.582;2023-06-04T22:36:11;3.78;;;2.13;;
20185;SDS011;10252;48.792;8.582;2023-06-04T22:41:12;2.80;;;1.70;;
20185;SDS011;10252;48.792;8.582;2023-06-04T22:46:14;6.63;;;2.75;;
20185;SDS011;10252;48.792;8.582;2023-06-04T22:51:15;3.05;;;2.17;;
20185;SDS011;10252;48.792;8.582;2023-06-04T22:56:17;4.22;;;3.10;;
20185;SDS011;10252;48.792;8.582;2023-06-04T23:01:18;3.65;;;2.30;;
20185;SDS011;10252;48.792;8.582;2023-06-04T23:06:19;3.85;;;2.60;;
20185;SDS011;10252;48.792;8.582;2023-06-04T23:11:20;3.22;;;2.35;;
20185;SDS011;10252;48.792;8.582;2023-06-04T23:16:21;5.68;;;2.30;;
20185;SDS011;10252;48.792;8.582;2023-06-04T23:21:22;3.17;;;2.60;;
20185;SDS011;10252;48.792;8.582;2023-06-04T23:26:24;3.95;;;2.90;;
20185;SDS011;10252;48.792;8.582;2023-06-04T23:31:25;4.63;;;2.47;;
20185;SDS011;10252;48.792;8.582;2023-06-04T23:36:26;5.75;;;2.75;;
20185;SDS011;10252;48.792;8.582;2023-06-04T23:41:27;6.38;;;2.60;;
20185;SDS011;10252;48.792;8.582;2023-06-04T23:46:28;5.82;;;3.13;;
20185;SDS011;10252;48.792;8.582;2023-06-04T23:51:29;5.97;;;3.08;;
20185;SDS011;10252;48.792;8.582;2023-06-04T23:56:30;5.22;;;2.88;;
